Time;durP1;ratioP1;P1;durP2;ratioP2;P2;SDS_P1;SDS_P2;PMS_P1;PMS_P2;Temp;Humidity;BMP_temperature;BMP_pressure;BME280_temperature;BME280_humidity;BME280_pressure;Samples;Min_cycle;Max_cycle;Signal;HPM_P1;HPM_P2
2022/03/24 00:02:13;;;;;;;24.83;11.60;;;;;;;;;;4996601;28;20110;-80
2022/03/24 00:04:40;;;;;;;25.27;12.05;;;;;;;;;;4998152;28;20773;-81
2022/03/24 00:07:06;;;;;;;30.88;12.80;;;;;;;;;;4995684;28;20058;-82
2022/03/24 00:09:33;;;;;;;25.33;12.63;;;;;;;;;;4989695;28;20143;-80
2022/03/24 00:11:59;;;;;;;29.88;12.25;;;;;;;;;;5024657;28;20108;-80
2022/03/24 00:14:26;;;;;;;24.90;11.63;;;;;;;;;;4998744;28;20118;-83
2022/03/24 00:16:52;;;;;;;28.92;12.27;;;;;;;;;;4993963;28;20129;-81
2022/03/24 00:19:19;;;;;;;27.80;12.05;;;;;;;;;;5000087;28;20652;-82
2022/03/24 00:21:45;;;;;;;30.38;13.27;;;;;;;;;;4996680;28;20125;-82
2022/03/24 00:24:13;;;;;;;28.40;13.68;;;;;;;;;;5002162;28;20114;-83
2022/03/24 00:26:39;;;;;;;29.70;14.25;;;;;;;;;;4986253;28;20574;-82
2022/03/24 00:29:08;;;;;;;35.38;15.00;;;;;;;;;;4991771;28;20059;-82
2022/03/24 00:31:34;;;;;;;29.95;13.38;;;;;;;;;;4994720;28;20054;-82
2022/03/24 00:34:01;;;;;;;37.88;16.73;;;;;;;;;;5003703;28;20050;-82
2022/03/24 00:36:27;;;;;;;34.40;15.52;;;;;;;;;;5010129;28;20133;-82
2022/03/24 00:38:55;;;;;;;32.80;16.48;;;;;;;;;;5002914;28;20058;-82
2022/03/24 00:41:22;;;;;;;38.90;18.35;;;;;;;;;;4988090;28;20054;-83
2022/03/24 00:43:49;;;;;;;33.75;15.90;;;;;;;;;;4991582;28;20055;-82
2022/03/24 00:46:16;;;;;;;32.00;15.70;;;;;;;;;;4974644;28;20519;-81
2022/03/24 00:48:42;;;;;;;32.88;15.07;;;;;;;;;;4977556;28;20056;-83
2022/03/24 00:51:09;;;;;;;35.83;15.63;;;;;;;;;;4999089;28;20051;-82
2022/03/24 00:53:35;;;;;;;34.17;14.77;;;;;;;;;;4996380;28;20055;-82
2022/03/24 00:56:02;;;;;;;34.03;14.50;;;;;;;;;;4996932;28;20070;-82
2022/03/24 00:58:28;;;;;;;37.50;15.48;;;;;;;;;;4997351;28;20051;-81
2022/03/24 01:00:55;;;;;;;31.98;14.48;;;;;;;;;;4996692;28;20061;-82
2022/03/24 01:03:22;;;;;;;30.25;14.00;;;;;;;;;;4997842;28;20054;-82
2022/03/24 01:05:48;;;;;;;30.55;13.75;;;;;;;;;;4996817;28;20077;-82
2022/03/24 01:08:17;;;;;;;34.08;14.45;;;;;;;;;;4998380;28;20130;-82
2022/03/24 01:10:44;;;;;;;28.40;13.18;;;;;;;;;;5010945;28;20191;-82
2022/03/24 01:13:11;;;;;;;37.30;13.63;;;;;;;;;;5015264;28;20486;-82
2022/03/24 01:15:37;;;;;;;31.63;14.77;;;;;;;;;;5003206;28;20059;-82
2022/03/24 01:18:06;;;;;;;30.45;14.32;;;;;;;;;;4996310;28;20094;-82
2022/03/24 01:20:32;;;;;;;36.10;14.10;;;;;;;;;;4989936;28;20059;-82
2022/03/24 01:22:59;;;;;;;36.25;14.55;;;;;;;;;;4996024;28;20093;-81
2022/03/24 01:25:27;;;;;;;33.58;14.32;;;;;;;;;;4996442;28;20055;-83
2022/03/24 01:27:53;;;;;;;28.85;13.30;;;;;;;;;;4997634;28;20494;-81
2022/03/24 01:30:20;;;;;;;28.73;12.95;;;;;;;;;;4996813;28;20825;-82
2022/03/24 01:32:46;;;;;;;35.17;13.65;;;;;;;;;;4996278;28;20058;-82
2022/03/24 01:35:14;;;;;;;27.90;13.45;;;;;;;;;;4995427;28;20058;-81
2022/03/24 01:37:40;;;;;;;35.63;14.63;;;;;;;;;;4994934;28;20051;-82
2022/03/24 01:40:08;;;;;;;39.72;15.88;;;;;;;;;;4995092;28;20054;-82
2022/03/24 01:42:35;;;;;;;34.17;14.90;;;;;;;;;;4996152;28;20054;-81
2022/03/24 01:45:02;;;;;;;31.40;15.25;;;;;;;;;;4996653;28;20055;-82
2022/03/24 01:47:28;;;;;;;32.08;14.95;;;;;;;;;;4992704;28;20059;-82
2022/03/24 01:49:58;;;;;;;32.47;15.88;;;;;;;;;;4989072;28;20514;-82
2022/03/24 01:52:25;;;;;;;34.58;15.75;;;;;;;;;;4991057;28;20059;-83
2022/03/24 01:54:54;;;;;;;35.55;15.80;;;;;;;;;;4992155;28;20059;-80
2022/03/24 01:57:21;;;;;;;33.90;14.82;;;;;;;;;;4995299;28;20050;-82
2022/03/24 01:59:48;;;;;;;36.97;15.60;;;;;;;;;;4997030;28;20058;-81
2022/03/24 02:02:15;;;;;;;32.03;15.52;;;;;;;;;;4995420;28;20103;-81
2022/03/24 02:04:43;;;;;;;35.47;15.82;;;;;;;;;;5012085;28;20030;-81
2022/03/24 02:07:10;;;;;;;35.78;15.70;;;;;;;;;;5014084;28;20089;-81
2022/03/24 02:09:37;;;;;;;35.22;15.48;;;;;;;;;;4999700;28;20058;-80
2022/03/24 02:12:04;;;;;;;35.08;14.63;;;;;;;;;;4995227;28;20897;-82
2022/03/24 02:14:31;;;;;;;33.28;15.07;;;;;;;;;;5009646;28;20065;-82
2022/03/24 02:16:57;;;;;;;36.63;15.60;;;;;;;;;;5014504;28;20062;-82
2022/03/24 02:19:25;;;;;;;36.40;15.43;;;;;;;;;;4995616;28;20070;-82
2022/03/24 02:21:52;;;;;;;36.22;16.23;;;;;;;;;;4996102;28;20827;-81
2022/03/24 02:24:20;;;;;;;38.60;17.83;;;;;;;;;;4997083;28;20075;-80
2022/03/24 02:26:47;;;;;;;41.05;17.98;;;;;;;;;;4996518;28;20055;-81
2022/03/24 02:29:15;;;;;;;46.90;18.38;;;;;;;;;;4985894;28;20114;-80
2022/03/24 02:31:43;;;;;;;40.20;17.75;;;;;;;;;;4991888;28;20035;-82
2022/03/24 02:36:57;;;;;;;39.40;17.42;;;;;;;;;;4997831;28;20054;-81
2022/03/24 02:39:23;;;;;;;37.00;17.88;;;;;;;;;;4996225;28;20525;-81
2022/03/24 02:41:52;;;;;;;37.80;17.90;;;;;;;;;;4997612;28;20628;-81
2022/03/24 02:44:19;;;;;;;38.15;16.67;;;;;;;;;;4984262;28;20061;-81
2022/03/24 02:46:50;;;;;;;33.78;16.17;;;;;;;;;;4996362;28;20051;-81
2022/03/24 02:49:18;;;;;;;34.60;16.40;;;;;;;;;;4996507;28;20062;-82
2022/03/24 02:51:44;;;;;;;40.60;15.80;;;;;;;;;;4995726;28;20094;-83
2022/03/24 02:54:11;;;;;;;33.13;16.08;;;;;;;;;;4994797;28;20063;-82
2022/03/24 02:56:38;;;;;;;35.15;15.05;;;;;;;;;;4994472;28;20054;-82
2022/03/24 02:59:06;;;;;;;38.35;15.50;;;;;;;;;;4994432;28;20130;-81
2022/03/24 03:01:36;;;;;;;37.00;15.55;;;;;;;;;;4998407;28;20054;-81
2022/03/24 03:04:02;;;;;;;37.65;15.38;;;;;;;;;;4993709;28;20055;-81
2022/03/24 03:06:29;;;;;;;34.08;14.45;;;;;;;;;;4993533;28;20106;-80
2022/03/24 03:08:55;;;;;;;36.08;14.93;;;;;;;;;;4992836;28;20065;-81
2022/03/24 03:11:22;;;;;;;34.97;16.20;;;;;;;;;;4994424;28;20051;-79
2022/03/24 03:13:49;;;;;;;36.90;16.25;;;;;;;;;;5003755;28;20137;-79
2022/03/24 03:16:15;;;;;;;38.20;16.05;;;;;;;;;;4998675;28;20778;-80
2022/03/24 03:18:43;;;;;;;35.88;16.27;;;;;;;;;;4989595;28;20794;-80
2022/03/24 03:21:09;;;;;;;38.03;17.20;;;;;;;;;;4992448;28;20137;-80
2022/03/24 03:23:39;;;;;;;38.38;16.40;;;;;;;;;;4997284;28;20117;-81
2022/03/24 03:26:05;;;;;;;38.60;16.55;;;;;;;;;;5011867;28;20054;-81
2022/03/24 03:28:32;;;;;;;43.00;18.30;;;;;;;;;;5012133;28;20050;-79
2022/03/24 03:30:58;;;;;;;43.70;17.52;;;;;;;;;;4995039;28;20051;-79
2022/03/24 03:33:25;;;;;;;47.17;19.23;;;;;;;;;;4990989;28;20113;-80
2022/03/24 03:35:52;;;;;;;42.47;19.13;;;;;;;;;;4992009;28;20058;-81
2022/03/24 03:38:19;;;;;;;46.22;18.95;;;;;;;;;;4994006;28;20055;-80
2022/03/24 03:40:46;;;;;;;43.88;19.20;;;;;;;;;;4992821;28;20113;-81
2022/03/24 03:43:14;;;;;;;42.08;18.00;;;;;;;;;;4993553;28;20078;-80
2022/03/24 03:45:45;;;;;;;44.53;18.60;;;;;;;;;;4992237;28;20702;-79
2022/03/24 03:48:13;;;;;;;47.88;19.27;;;;;;;;;;4993436;28;20088;-80
2022/03/24 03:50:42;;;;;;;41.30;18.90;;;;;;;;;;4995847;28;20050;-81
2022/03/24 03:53:09;;;;;;;44.33;17.05;;;;;;;;;;4992500;28;20043;-82
2022/03/24 03:55:36;;;;;;;42.25;19.17;;;;;;;;;;4993616;28;20113;-81
2022/03/24 03:58:05;;;;;;;42.53;18.75;;;;;;;;;;4992214;28;20078;-79
2022/03/24 04:03:28;;;;;;;42.63;18.52;;;;;;;;;;4996246;28;20920;-80
2022/03/24 04:05:56;;;;;;;44.90;19.63;;;;;;;;;;5012260;28;20050;-79
2022/03/24 04:08:23;;;;;;;45.95;19.60;;;;;;;;;;4997105;28;20498;-79
2022/03/24 04:10:49;;;;;;;42.90;17.92;;;;;;;;;;4999814;28;20514;-79
2022/03/24 04:13:17;;;;;;;41.42;17.80;;;;;;;;;;5004980;28;20463;-82
2022/03/24 04:15:45;;;;;;;43.55;18.05;;;;;;;;;;5004533;28;20054;-80
2022/03/24 04:18:14;;;;;;;46.80;18.20;;;;;;;;;;4993104;28;20055;-81
2022/03/24 04:20:41;;;;;;;41.13;18.58;;;;;;;;;;4992444;28;20059;-82
2022/03/24 04:23:08;;;;;;;41.88;18.33;;;;;;;;;;4993904;28;20046;-81
2022/03/24 04:25:35;;;;;;;37.40;18.33;;;;;;;;;;4999675;28;20042;-79
2022/03/24 04:28:03;;;;;;;43.35;17.88;;;;;;;;;;5006569;28;20065;-82
2022/03/24 04:30:30;;;;;;;44.65;18.17;;;;;;;;;;4995530;28;20059;-79
2022/03/24 04:32:57;;;;;;;40.65;19.17;;;;;;;;;;4985230;28;20063;-82
2022/03/24 04:35:23;;;;;;;42.63;18.95;;;;;;;;;;5000679;28;20991;-79
2022/03/24 04:37:50;;;;;;;42.30;18.45;;;;;;;;;;5011565;28;20043;-80
2022/03/24 04:40:17;;;;;;;44.95;19.00;;;;;;;;;;4996735;28;20055;-79
2022/03/24 04:42:45;;;;;;;48.20;19.83;;;;;;;;;;4990543;28;20106;-79
2022/03/24 04:45:13;;;;;;;50.15;18.17;;;;;;;;;;5005984;28;20098;-82
2022/03/24 04:47:40;;;;;;;48.53;19.52;;;;;;;;;;4995654;28;20062;-80
2022/03/24 04:50:07;;;;;;;46.42;18.65;;;;;;;;;;4996186;28;20042;-80
2022/03/24 04:52:33;;;;;;;50.88;21.15;;;;;;;;;;4994508;28;20113;-81
2022/03/24 04:55:00;;;;;;;49.95;20.05;;;;;;;;;;5009948;28;20079;-79
2022/03/24 04:57:27;;;;;;;52.78;20.13;;;;;;;;;;5016280;28;20109;-82
2022/03/24 04:59:54;;;;;;;47.75;19.30;;;;;;;;;;4998012;28;20066;-79
2022/03/24 05:02:20;;;;;;;48.65;19.95;;;;;;;;;;4990937;28;20047;-81
2022/03/24 05:04:47;;;;;;;42.95;20.50;;;;;;;;;;5005830;28;20055;-81
2022/03/24 05:07:13;;;;;;;49.55;19.95;;;;;;;;;;4996304;28;20050;-81
2022/03/24 05:09:39;;;;;;;50.03;20.17;;;;;;;;;;4995734;28;20105;-79
2022/03/24 05:12:11;;;;;;;48.42;20.73;;;;;;;;;;5009111;28;20939;-81
2022/03/24 05:14:38;;;;;;;47.85;21.00;;;;;;;;;;5004081;28;20573;-79
2022/03/24 05:17:06;;;;;;;46.33;21.48;;;;;;;;;;4981975;28;20051;-79
2022/03/24 05:19:32;;;;;;;58.10;22.77;;;;;;;;;;4981787;28;20852;-78
2022/03/24 05:21:58;;;;;;;76.45;27.55;;;;;;;;;;4996702;28;20106;-79
2022/03/24 05:24:25;;;;;;;68.70;27.73;;;;;;;;;;5007011;28;20121;-79
2022/03/24 05:26:51;;;;;;;67.78;25.08;;;;;;;;;;5005458;28;20125;-82
2022/03/24 05:29:17;;;;;;;57.88;24.40;;;;;;;;;;5000856;28;20046;-81
2022/03/24 05:31:45;;;;;;;57.55;22.77;;;;;;;;;;4997590;28;20046;-81
2022/03/24 05:34:11;;;;;;;49.10;20.63;;;;;;;;;;4981924;28;20051;-80
2022/03/24 05:36:38;;;;;;;49.42;21.48;;;;;;;;;;4987402;28;20113;-81
2022/03/24 05:39:04;;;;;;;44.25;19.45;;;;;;;;;;4997072;28;20078;-81
2022/03/24 05:41:30;;;;;;;48.13;20.45;;;;;;;;;;4998972;28;20916;-82
2022/03/24 05:44:03;;;;;;;77.10;24.90;;;;;;;;;;4993791;28;20038;-79
2022/03/24 05:46:40;;;;;;;76.50;24.52;;;;;;;;;;4993222;28;20047;-80
2022/03/24 05:49:08;;;;;;;72.97;24.65;;;;;;;;;;4992498;28;20055;-83
2022/03/24 05:51:35;;;;;;;75.35;24.23;;;;;;;;;;4996588;28;20047;-82
2022/03/24 05:54:03;;;;;;;53.47;21.83;;;;;;;;;;4997263;28;20860;-79
2022/03/24 05:56:30;;;;;;;51.78;20.40;;;;;;;;;;4996236;28;20035;-80
2022/03/24 05:58:56;;;;;;;52.17;21.80;;;;;;;;;;5006131;28;20090;-80
2022/03/24 06:01:25;;;;;;;57.67;23.05;;;;;;;;;;4996635;28;20051;-81
2022/03/24 06:03:52;;;;;;;56.47;22.02;;;;;;;;;;4995614;28;20056;-79
2022/03/24 06:06:19;;;;;;;51.40;20.50;;;;;;;;;;5001704;28;20560;-81
2022/03/24 06:08:47;;;;;;;52.38;20.67;;;;;;;;;;5007682;28;20050;-82
2022/03/24 06:11:14;;;;;;;49.03;21.23;;;;;;;;;;5008345;28;20059;-81
2022/03/24 06:13:41;;;;;;;48.92;20.67;;;;;;;;;;5012734;28;20108;-81
2022/03/24 06:16:07;;;;;;;49.17;20.52;;;;;;;;;;5015612;28;20141;-80
2022/03/24 06:18:35;;;;;;;49.70;21.42;;;;;;;;;;5002586;28;20054;-81
2022/03/24 06:21:02;;;;;;;47.72;21.38;;;;;;;;;;4995162;28;20075;-81
2022/03/24 06:23:29;;;;;;;46.53;20.85;;;;;;;;;;4993356;28;20063;-80
2022/03/24 06:25:56;;;;;;;45.55;21.92;;;;;;;;;;4976594;28;20051;-79
2022/03/24 06:28:27;;;;;;;52.85;20.42;;;;;;;;;;4999412;28;20050;-82
2022/03/24 06:30:54;;;;;;;43.85;20.23;;;;;;;;;;5015398;28;20054;-79
2022/03/24 06:33:21;;;;;;;42.33;19.65;;;;;;;;;;4998800;28;20043;-82
2022/03/24 06:36:01;;;;;;;44.35;19.15;;;;;;;;;;4984168;28;20063;-80
2022/03/24 06:38:28;;;;;;;46.35;19.67;;;;;;;;;;5002239;28;20050;-78
2022/03/24 06:40:54;;;;;;;43.65;20.55;;;;;;;;;;4995654;28;20113;-79
2022/03/24 06:43:22;;;;;;;44.63;20.40;;;;;;;;;;4994381;28;20180;-81
2022/03/24 06:45:48;;;;;;;51.10;21.65;;;;;;;;;;4996758;28;20113;-80
2022/03/24 06:48:15;;;;;;;44.03;19.65;;;;;;;;;;4996640;28;20055;-81
2022/03/24 06:50:41;;;;;;;45.97;20.15;;;;;;;;;;4994119;28;20125;-83
2022/03/24 06:53:08;;;;;;;47.42;21.15;;;;;;;;;;4994826;28;20090;-81
2022/03/24 06:55:35;;;;;;;51.55;21.30;;;;;;;;;;4994785;28;20047;-80
2022/03/24 06:58:02;;;;;;;45.33;19.95;;;;;;;;;;4994852;28;20047;-82
2022/03/24 07:00:29;;;;;;;51.22;20.88;;;;;;;;;;5000543;28;20134;-79
2022/03/24 07:02:56;;;;;;;46.83;21.45;;;;;;;;;;5005467;28;20057;-80
2022/03/24 07:05:22;;;;;;;49.47;21.05;;;;;;;;;;4994556;28;20043;-84
2022/03/24 07:07:49;;;;;;;47.95;22.33;;;;;;;;;;4991531;28;20062;-81
2022/03/24 07:10:16;;;;;;;52.58;22.30;;;;;;;;;;4996378;28;20050;-79
2022/03/24 07:12:42;;;;;;;49.22;21.63;;;;;;;;;;5010933;28;20061;-82
2022/03/24 07:15:11;;;;;;;47.53;21.25;;;;;;;;;;4990864;28;20062;-81
2022/03/24 07:17:38;;;;;;;49.58;23.08;;;;;;;;;;4996868;28;20106;-79
2022/03/24 07:20:05;;;;;;;51.08;21.02;;;;;;;;;;5001240;28;20525;-81
2022/03/24 07:22:32;;;;;;;52.17;22.27;;;;;;;;;;4994710;28;20051;-80
2022/03/24 07:24:59;;;;;;;46.58;21.42;;;;;;;;;;4995427;28;20055;-79
2022/03/24 07:27:25;;;;;;;47.35;20.85;;;;;;;;;;4994641;28;20774;-83
2022/03/24 07:29:55;;;;;;;54.23;21.83;;;;;;;;;;4994713;28;20063;-83
2022/03/24 07:32:22;;;;;;;56.20;22.45;;;;;;;;;;4993369;28;20876;-81
2022/03/24 07:34:48;;;;;;;49.03;21.92;;;;;;;;;;4994268;28;20105;-79
2022/03/24 07:37:15;;;;;;;48.65;21.55;;;;;;;;;;4994089;28;20054;-81
2022/03/24 07:39:42;;;;;;;51.05;21.10;;;;;;;;;;4995049;28;20039;-79
2022/03/24 07:42:09;;;;;;;44.63;21.38;;;;;;;;;;4999685;28;20074;-82
2022/03/24 07:44:35;;;;;;;50.13;22.00;;;;;;;;;;4996393;28;20067;-80
2022/03/24 07:47:04;;;;;;;41.33;21.20;;;;;;;;;;4994375;28;20725;-83
2022/03/24 07:49:31;;;;;;;48.88;23.23;;;;;;;;;;4975922;28;20044;-83
2022/03/24 07:51:57;;;;;;;52.15;23.85;;;;;;;;;;5004655;28;20058;-80
2022/03/24 07:54:40;;;;;;;52.30;23.85;;;;;;;;;;5006055;28;20046;-81
2022/03/24 07:57:06;;;;;;;47.17;23.65;;;;;;;;;;4992375;28;20080;-80
2022/03/24 07:59:38;;;;;;;48.53;23.60;;;;;;;;;;4992879;28;20043;-79
2022/03/24 08:02:07;;;;;;;51.67;24.55;;;;;;;;;;4992810;28;20080;-81
2022/03/24 08:04:34;;;;;;;48.17;24.05;;;;;;;;;;4993990;28;20171;-82
2022/03/24 08:07:00;;;;;;;55.35;23.80;;;;;;;;;;4992573;28;20711;-81
2022/03/24 08:09:30;;;;;;;48.72;24.45;;;;;;;;;;4993060;28;20054;-81
2022/03/24 08:11:57;;;;;;;48.13;23.95;;;;;;;;;;4992350;28;20091;-79
2022/03/24 08:14:23;;;;;;;44.53;22.35;;;;;;;;;;5006787;28;20450;-82
2022/03/24 08:16:49;;;;;;;42.35;21.65;;;;;;;;;;4992927;28;20073;-84
2022/03/24 08:19:16;;;;;;;42.30;21.52;;;;;;;;;;4992652;28;20055;-82
2022/03/24 08:21:43;;;;;;;46.70;23.08;;;;;;;;;;4988798;28;20047;-82
2022/03/24 08:24:10;;;;;;;40.15;22.08;;;;;;;;;;4994045;28;20058;-80
2022/03/24 08:26:37;;;;;;;41.45;21.75;;;;;;;;;;4998235;28;20534;-81
2022/03/24 08:29:04;;;;;;;43.45;22.52;;;;;;;;;;5009367;28;20050;-80
2022/03/24 08:31:30;;;;;;;43.22;20.95;;;;;;;;;;4991474;28;20051;-81
2022/03/24 08:33:57;;;;;;;42.00;21.38;;;;;;;;;;5005438;28;20905;-82
2022/03/24 08:36:24;;;;;;;41.30;21.75;;;;;;;;;;4991621;28;20055;-81
2022/03/24 08:38:50;;;;;;;38.15;20.33;;;;;;;;;;4991769;28;20102;-83
2022/03/24 08:41:17;;;;;;;36.67;20.33;;;;;;;;;;4993342;28;20054;-84
2022/03/24 08:43:43;;;;;;;40.55;20.85;;;;;;;;;;4993957;28;20521;-85
2022/03/24 08:46:10;;;;;;;39.17;19.75;;;;;;;;;;4999653;28;20510;-83
2022/03/24 08:48:36;;;;;;;35.63;20.13;;;;;;;;;;4994198;28;20062;-83
2022/03/24 08:51:03;;;;;;;36.25;20.00;;;;;;;;;;4994874;28;20093;-81
2022/03/24 08:53:29;;;;;;;34.72;19.77;;;;;;;;;;4997436;28;20059;-81
2022/03/24 08:55:56;;;;;;;39.13;20.75;;;;;;;;;;4995373;28;20063;-85
2022/03/24 08:58:24;;;;;;;33.58;19.30;;;;;;;;;;4994976;28;20513;-84
2022/03/24 09:00:51;;;;;;;36.00;18.63;;;;;;;;;;4994696;28;20050;-86
2022/03/24 09:03:20;;;;;;;38.20;20.48;;;;;;;;;;4998302;28;20054;-84
2022/03/24 09:05:47;;;;;;;36.00;18.98;;;;;;;;;;4994111;28;20066;-83
2022/03/24 09:08:13;;;;;;;32.08;19.27;;;;;;;;;;4992993;28;20039;-83
2022/03/24 09:10:40;;;;;;;30.73;19.15;;;;;;;;;;5000095;28;20693;-84
2022/03/24 09:13:08;;;;;;;35.00;18.27;;;;;;;;;;5013257;28;20059;-84
2022/03/24 09:15:35;;;;;;;29.45;17.85;;;;;;;;;;5009487;28;20074;-85
2022/03/24 09:18:04;;;;;;;34.28;19.45;;;;;;;;;;4993841;28;20055;-82
2022/03/24 09:20:31;;;;;;;34.63;20.02;;;;;;;;;;4976915;28;20051;-84
2022/03/24 09:22:57;;;;;;;37.40;19.50;;;;;;;;;;4975167;28;20059;-83
2022/03/24 09:25:24;;;;;;;32.30;18.73;;;;;;;;;;4988795;28;20112;-85
2022/03/24 09:27:51;;;;;;;31.73;19.10;;;;;;;;;;5005783;28;20054;-86
2022/03/24 09:30:18;;;;;;;31.15;18.80;;;;;;;;;;4998334;28;20051;-85
2022/03/24 09:32:48;;;;;;;31.00;19.88;;;;;;;;;;4996707;28;20589;-84
2022/03/24 09:35:15;;;;;;;31.83;19.60;;;;;;;;;;4998626;28;20857;-84
2022/03/24 09:37:42;;;;;;;39.03;19.95;;;;;;;;;;4998079;28;20662;-87
2022/03/24 09:40:09;;;;;;;31.90;19.45;;;;;;;;;;4996227;28;20054;-86
2022/03/24 09:42:36;;;;;;;34.90;19.15;;;;;;;;;;4996033;28;20108;-88
2022/03/24 09:45:03;;;;;;;32.45;20.08;;;;;;;;;;4995404;28;20710;-85
2022/03/24 09:47:30;;;;;;;34.20;20.55;;;;;;;;;;5000625;28;20083;-86
2022/03/24 09:49:57;;;;;;;32.17;19.50;;;;;;;;;;5010343;28;20035;-87
2022/03/24 09:52:25;;;;;;;31.52;20.05;;;;;;;;;;5007331;28;20046;-86
2022/03/24 09:54:52;;;;;;;33.75;21.08;;;;;;;;;;5005307;28;20074;-87
2022/03/24 09:57:20;;;;;;;36.10;20.95;;;;;;;;;;5002118;28;20555;-86
2022/03/24 09:59:46;;;;;;;35.45;20.85;;;;;;;;;;4998041;28;20057;-88
2022/03/24 10:02:13;;;;;;;31.80;19.63;;;;;;;;;;5002812;28;20050;-88
2022/03/24 10:04:43;;;;;;;33.65;18.77;;;;;;;;;;5000792;28;20042;-86
2022/03/24 10:07:14;;;;;;;36.33;20.10;;;;;;;;;;5001152;28;20051;-86
2022/03/24 10:09:42;;;;;;;31.48;18.83;;;;;;;;;;4999947;28;20039;-87
2022/03/24 10:12:17;;;;;;;33.97;19.33;;;;;;;;;;4999461;28;20062;-87
2022/03/24 10:14:44;;;;;;;36.00;18.63;;;;;;;;;;5014980;28;20066;-88
2022/03/24 10:17:11;;;;;;;29.05;17.55;;;;;;;;;;4998217;28;20094;-85
2022/03/24 10:19:38;;;;;;;29.48;19.52;;;;;;;;;;4999028;28;20058;-86
2022/03/24 10:22:08;;;;;;;32.05;18.20;;;;;;;;;;4996671;28;20038;-86
2022/03/24 10:24:43;;;;;;;29.65;18.42;;;;;;;;;;4994083;28;20083;-87
2022/03/24 10:27:11;;;;;;;32.65;18.38;;;;;;;;;;4998681;28;20074;-87
2022/03/24 10:29:37;;;;;;;28.45;18.20;;;;;;;;;;4993512;28;20074;-86
2022/03/24 10:32:09;;;;;;;26.17;17.52;;;;;;;;;;4999177;28;20071;-84
2022/03/24 10:34:38;;;;;;;32.08;17.90;;;;;;;;;;4993671;28;20512;-87
2022/03/24 10:37:06;;;;;;;30.85;16.20;;;;;;;;;;4989096;28;20510;-85
2022/03/24 10:39:34;;;;;;;31.60;17.92;;;;;;;;;;4988858;28;20063;-86
2022/03/24 10:42:10;;;;;;;34.78;17.40;;;;;;;;;;4993294;28;20588;-86
2022/03/24 10:44:57;;;;;;;30.92;18.00;;;;;;;;;;4999570;28;20117;-84
2022/03/24 10:47:42;;;;;;;28.88;16.80;;;;;;;;;;4977137;28;20035;-87
2022/03/24 10:50:20;;;;;;;34.50;17.65;;;;;;;;;;4976675;28;20039;-85
2022/03/24 10:52:47;;;;;;;28.63;17.40;;;;;;;;;;4974382;28;20047;-86
2022/03/24 10:55:19;;;;;;;27.15;17.10;;;;;;;;;;4976218;28;20562;-87
2022/03/24 10:57:45;;;;;;;31.52;15.82;;;;;;;;;;4990586;28;20055;-86
2022/03/24 11:00:12;;;;;;;30.25;16.65;;;;;;;;;;4991728;28;20050;-87
2022/03/24 11:02:40;;;;;;;26.92;16.52;;;;;;;;;;4993822;28;20134;-86
2022/03/24 11:05:12;;;;;;;25.05;15.80;;;;;;;;;;4991208;28;20058;-86
2022/03/24 11:07:39;;;;;;;27.05;16.38;;;;;;;;;;4990193;28;20059;-86
2022/03/24 11:10:12;;;;;;;34.90;16.33;;;;;;;;;;4988523;28;20098;-87
2022/03/24 11:12:39;;;;;;;28.98;15.32;;;;;;;;;;4989624;28;20058;-86
2022/03/24 11:15:07;;;;;;;28.40;15.35;;;;;;;;;;5010931;28;20588;-86
2022/03/24 11:17:35;;;;;;;27.23;16.38;;;;;;;;;;5001592;28;20118;-86
2022/03/24 11:20:04;;;;;;;27.65;15.93;;;;;;;;;;4991079;28;20473;-86
2022/03/24 11:22:47;;;;;;;30.43;16.60;;;;;;;;;;4992326;28;20082;-87
2022/03/24 11:25:13;;;;;;;30.67;16.02;;;;;;;;;;4986683;28;20596;-88
2022/03/24 11:27:39;;;;;;;27.65;16.58;;;;;;;;;;4970129;28;20059;-87
2022/03/24 11:30:07;;;;;;;26.30;16.30;;;;;;;;;;4971411;28;20061;-87
2022/03/24 11:32:35;;;;;;;29.08;16.83;;;;;;;;;;4976864;28;20095;-87
2022/03/24 11:35:05;;;;;;;25.17;16.60;;;;;;;;;;4986926;28;20141;-86
2022/03/24 11:37:32;;;;;;;27.08;17.27;;;;;;;;;;4990494;28;20206;-87
2022/03/24 11:40:06;;;;;;;23.60;14.65;;;;;;;;;;4989580;28;20154;-82
2022/03/24 11:42:34;;;;;;;24.25;14.35;;;;;;;;;;4990083;28;20063;-86
2022/03/24 11:45:03;;;;;;;23.52;14.50;;;;;;;;;;4990826;28;20083;-86
2022/03/24 11:47:46;;;;;;;30.50;14.65;;;;;;;;;;4988661;28;20054;-86
2022/03/24 11:50:17;;;;;;;27.92;15.40;;;;;;;;;;4988628;28;20047;-86
2022/03/24 11:52:43;;;;;;;;;;;;;;;;;;4992404;28;20058;-86
2022/03/24 11:55:13;;;;;;;28.15;16.15;;;;;;;;;;4990409;28;48067;-86
2022/03/24 11:57:41;;;;;;;;;;;;;;;;;;4990728;28;20517;-85
2022/03/24 12:00:13;;;;;;;27.70;15.82;;;;;;;;;;4989209;28;45040;-85
2022/03/24 12:02:49;;;;;;;29.58;17.15;;;;;;;;;;4994891;28;20046;-86
2022/03/24 12:05:17;;;;;;;24.83;15.75;;;;;;;;;;4991948;28;20046;-85
2022/03/24 12:07:43;;;;;;;26.25;15.80;;;;;;;;;;4992710;28;20574;-85
2022/03/24 12:10:11;;;;;;;27.42;17.08;;;;;;;;;;4996484;28;20055;-86
2022/03/24 12:12:38;;;;;;;27.80;16.98;;;;;;;;;;5003697;28;20062;-86
2022/03/24 12:15:10;;;;;;;30.25;16.67;;;;;;;;;;5011291;28;20133;-85
2022/03/24 12:17:36;;;;;;;30.58;17.20;;;;;;;;;;4994333;28;20050;-85
2022/03/24 12:20:22;;;;;;;29.95;17.48;;;;;;;;;;4997514;28;20055;-84
2022/03/24 12:22:49;;;;;;;28.85;15.85;;;;;;;;;;4985960;28;20055;-85
2022/03/24 12:25:22;;;;;;;27.30;16.25;;;;;;;;;;4995915;28;20057;-86
2022/03/24 12:28:04;;;;;;;27.33;15.88;;;;;;;;;;5003173;28;20058;-86
2022/03/24 12:30:48;;;;;;;24.85;14.77;;;;;;;;;;5004169;28;20434;-85
2022/03/24 12:33:16;;;;;;;33.10;14.32;;;;;;;;;;4990741;28;21022;-86
2022/03/24 12:35:45;;;;;;;24.00;13.68;;;;;;;;;;4991762;28;20506;-86
2022/03/24 12:38:20;;;;;;;28.00;13.93;;;;;;;;;;4990775;28;20054;-85
2022/03/24 12:41:11;;;;;;;25.90;12.63;;;;;;;;;;4991354;28;20494;-86
2022/03/24 12:43:46;;;;;;;22.23;12.77;;;;;;;;;;4996169;28;20486;-86
2022/03/24 12:46:22;;;;;;;24.95;12.05;;;;;;;;;;4991800;28;20055;-86
2022/03/24 12:48:49;;;;;;;24.80;10.57;;;;;;;;;;4994611;28;20058;-86
2022/03/24 12:51:17;;;;;;;21.33;9.75;;;;;;;;;;4995111;28;20070;-85
2022/03/24 12:53:51;;;;;;;21.15;10.80;;;;;;;;;;4996390;28;20046;-83
2022/03/24 12:56:22;;;;;;;22.10;10.80;;;;;;;;;;4989484;28;20054;-83
2022/03/24 12:58:52;;;;;;;20.50;9.32;;;;;;;;;;4995529;28;20054;-85
2022/03/24 13:01:18;;;;;;;;;;;;;;;;;;5001560;28;20035;-84
2022/03/24 13:03:52;;;;;;;18.55;9.40;;;;;;;;;;5011498;28;46546;-84
2022/03/24 13:06:20;;;;;;;21.38;9.70;;;;;;;;;;4998988;28;20050;-85
2022/03/24 13:09:05;;;;;;;19.92;9.77;;;;;;;;;;5001954;28;20089;-86
2022/03/24 13:11:46;;;;;;;17.98;9.43;;;;;;;;;;5000723;28;20059;-84
2022/03/24 13:14:13;;;;;;;20.70;9.65;;;;;;;;;;5018874;28;20054;-84
2022/03/24 13:16:39;;;;;;;18.13;8.65;;;;;;;;;;4995368;28;20109;-83
2022/03/24 13:19:06;;;;;;;13.82;6.82;;;;;;;;;;4993280;28;20055;-84
2022/03/24 13:21:32;;;;;;;14.57;6.28;;;;;;;;;;4993074;28;20912;-86
2022/03/24 13:23:59;;;;;;;19.75;7.20;;;;;;;;;;4988687;28;20058;-86
2022/03/24 13:26:25;;;;;;;18.13;7.88;;;;;;;;;;4990262;28;20059;-84
2022/03/24 13:28:55;;;;;;;16.05;7.40;;;;;;;;;;4990078;28;20058;-84
2022/03/24 13:31:29;;;;;;;23.42;10.13;;;;;;;;;;4989007;28;20061;-84
2022/03/24 13:33:56;;;;;;;22.40;9.02;;;;;;;;;;4992738;28;20617;-84
2022/03/24 13:36:22;;;;;;;19.83;9.23;;;;;;;;;;4990710;28;20051;-86
2022/03/24 13:38:49;;;;;;;17.10;8.90;;;;;;;;;;4990677;28;20109;-85
2022/03/24 13:41:15;;;;;;;24.10;14.27;;;;;;;;;;4992111;28;20050;-85
2022/03/24 13:43:55;;;;;;;20.23;12.63;;;;;;;;;;4998941;28;20051;-85
2022/03/24 13:46:22;;;;;;;15.77;9.40;;;;;;;;;;4992619;28;20043;-84
2022/03/24 13:48:52;;;;;;;18.02;9.75;;;;;;;;;;4988811;28;20612;-83
2022/03/24 13:51:27;;;;;;;21.15;11.32;;;;;;;;;;4988334;28;20062;-83
2022/03/24 13:53:53;;;;;;;27.33;14.07;;;;;;;;;;4996306;28;20127;-84
2022/03/24 13:56:20;;;;;;;28.23;13.60;;;;;;;;;;4993617;28;20114;-85
2022/03/24 13:58:46;;;;;;;26.35;13.10;;;;;;;;;;4988973;28;20058;-84
2022/03/24 14:01:17;;;;;;;24.77;11.32;;;;;;;;;;4989395;28;20062;-85
2022/03/24 14:03:45;;;;;;;21.08;11.45;;;;;;;;;;4976453;28;20830;-84
2022/03/24 14:06:13;;;;;;;24.58;11.15;;;;;;;;;;4984214;28;20051;-84
2022/03/24 14:08:47;;;;;;;30.13;15.02;;;;;;;;;;4991881;28;20054;-84
2022/03/24 14:11:24;;;;;;;30.52;16.85;;;;;;;;;;4992919;28;20054;-82
2022/03/24 14:13:58;;;;;;;29.00;17.40;;;;;;;;;;4988653;28;20061;-84
2022/03/24 14:16:28;;;;;;;32.55;18.40;;;;;;;;;;5006372;28;20150;-84
2022/03/24 14:19:15;;;;;;;25.98;16.83;;;;;;;;;;4993739;28;20089;-84
2022/03/24 14:21:53;;;;;;;29.00;17.20;;;;;;;;;;5007240;28;20059;-82
2022/03/24 14:24:33;;;;;;;33.15;17.48;;;;;;;;;;5005800;28;20088;-84
2022/03/24 14:27:03;;;;;;;33.90;18.10;;;;;;;;;;4982250;28;20050;-85
2022/03/24 14:29:30;;;;;;;35.42;17.55;;;;;;;;;;4998161;28;20055;-84
2022/03/24 14:32:26;;;;;;;33.00;16.65;;;;;;;;;;4994115;28;20051;-81